CheckWX is a tool to help pilots better visualize weather data.  It is not intended as a substitute for an official pre-flight weather briefing.

07:29:18 UTC

KMOD TAF
Modesto City-Co-Harry Sham Field Airport
Modesto, California, USA
KMOD 160531Z 1606/1706 34008KT P6SM SCT250 FM162000 31006KT P6SM SKC

Jun-16@
06:00 UTC

Jun-16 @ 06:00 UTC

Jun-16@
20:00 UTC

Jun-16 @ 20:00 UTC

KMOD 160531Z 1606/1706 34008KT P6SM SCT250
Wind
  • 340° at 8 KTS
Cloud Levels
  • Scattered at 25,000' AGL

Jun-16@
20:00 UTC

Jun-16 @ 20:00 UTC

Jun-17@
06:00 UTC

Jun-17 @ 06:00 UTC

FM162000 31006KT P6SM SKC

From

From Standard forecast or significant change

Wind
  • 310° at 6 KTS
Cloud Levels
  • Clear skies